Flight Track Log - Related Links

Times and Time Zones

All times are in EDT time to prevent confusion due to time zone crossing. See the LOF3416 flight status page for this flight to view local times or setup timezone preferences in your user account.

Time Position Orientation Groundspeed Altitude Reporting Facility
EDT Latitude Longitude Course Direction KTS MPH feet Rate Location/Type
Mon 10:29:00 PM 38.9000 -77.5000 270° West 217 250 2,800  Level Potomac TRACON
Mon 10:30:40 PM 38.8856 -77.6425 263° West 279 321 6,300 2,063 Climbing Washington Center
Mon 10:31:40 PM 38.8819 -77.7278 267° West 279 321 8,300 1,967 Climbing Washington Center
Mon 10:32:42 PM 38.8758 -77.8367 266° West 279 321 10,300 1,600 Climbing Washington Center
Mon 10:33:40 PM 38.8778 -77.9461 271° West 290 334 11,500 1,109 Climbing Washington Center
Mon 10:34:00 PM 38.9500 -78.3054 270° West  Level FlightAware Approximate
Mon 10:34:41 PM 38.9111 -78.0567 291° West 303 349 12,500  Level Washington Center
Mon 10:35:42 PM 38.9464 -78.1672 292° West 325 374 13,700 1,150 Climbing Washington Center
Mon 10:36:41 PM 38.9622 -78.2906 279° West 337 388 14,800 1,100 Climbing Washington Center
Mon 10:37:42 PM 38.9658 -78.4136 272° West 342 394 15,900 1,091 Climbing Washington Center
Mon 10:38:42 PM 38.9711 -78.5392 273° West 352 405 17,000 1,017 Climbing Washington Center
Mon 10:39:40 PM 38.9742 -78.6675 272° West 352 405 17,900 1,017 Climbing Washington Center
Mon 10:40:40 PM 38.9772 -78.7933 272° West 357 411 19,000 1,100 Climbing Washington Center
Mon 10:41:40 PM 38.9842 -78.9217 274° West 357 411 20,100 1,100 Climbing Washington Center
Mon 10:42:40 PM 38.9931 -79.0478 275° West 362 417 21,200 1,091 Climbing Washington Center
Mon 10:43:41 PM 39.0039 -79.1764 276° West 367 422 22,300 984 Climbing Washington Center
Mon 10:44:42 PM 39.0111 -79.2783 275° West 367 422 23,200 857 Climbing Washington Center
Mon 10:45:40 PM 39.0214 -79.4178 275° West 367 422 24,000 403 Climbing Washington Center
Mon 10:46:41 PM 39.0297 -79.5517 275° West 372 428 24,000  Level Washington Center
Mon 10:47:42 PM 39.0408 -79.7153 275° West 406 467 24,000  Level Washington Center
Mon 10:48:40 PM 39.0531 -79.8417 277° West 406 467 24,000  Level Washington Center
Mon 10:49:42 PM 39.0622 -79.9894 275° West 411 473 24,000  Level Washington Center
Mon 10:51:20 PM 39.0764 -80.2328 274° West 410 472 24,000  Level Indianapolis Center
Mon 10:52:21 PM 39.0853 -80.3806 274° West 414 476 24,000  Level Indianapolis Center
Mon 10:53:22 PM 39.0953 -80.5261 275° West 412 474 24,000  Level Indianapolis Center
Mon 10:54:24 PM 39.1206 -80.6692 283° West 414 476 24,000  Level Indianapolis Center
Mon 10:55:25 PM 39.1536 -80.8081 287° West 410 472 24,000  Level Indianapolis Center
Mon 10:56:26 PM 39.1931 -80.9772 287° West 413 475 24,000  Level Indianapolis Center
Mon 10:57:27 PM 39.2267 -81.1169 287° West 412 474 24,000  Level Indianapolis Center
Mon 10:58:28 PM 39.2586 -81.2583 286° West 413 475 24,000  Level Indianapolis Center
Mon 10:59:30 PM 39.2925 -81.3992 287° West 413 475 24,000  Level Indianapolis Center
Mon 11:00:31 PM 39.3247 -81.5406 286° West 414 476 24,000  Level Indianapolis Center
Mon 11:01:32 PM 39.3564 -81.6828 286° West 414 476 24,000  Level Indianapolis Center
Mon 11:02:33 PM 39.3889 -81.8239 287° West 411 473 24,000  Level Indianapolis Center
Mon 11:03:34 PM 39.4217 -81.9656 287° West 412 474 24,000  Level Indianapolis Center
Mon 11:04:36 PM 39.4528 -82.1072 286° West 411 473 24,000  Level Indianapolis Center
Mon 11:05:37 PM 39.4867 -82.2622 286° West 411 473 24,000 -689 Level Indianapolis Center
Mon 11:06:38 PM 39.5175 -82.4025 286° West 404 465 22,600 -1,475 Descending Indianapolis Center
Mon 11:07:39 PM 39.5503 -82.5481 286° West 415 478 21,000 -1,512 Descending Indianapolis Center
Mon 11:08:41 PM 39.5806 -82.6892 286° West 405 466 19,500 -1,512 Descending Indianapolis Center
Mon 11:09:42 PM 39.6100 -82.8267 286° West 395 455 17,900 -1,475 Descending Indianapolis Center
Mon 11:10:43 PM 39.6394 -82.9614 286° West 386 444 16,500 -1,426 Descending Indianapolis Center
Mon 11:11:44 PM 39.6683 -83.0944 286° West 381 438 15,000 -1,659 Descending Indianapolis Center
Mon 11:12:46 PM 39.7000 -83.2453 285° West 369 425 13,100 -1,610 Descending Indianapolis Center
Mon 11:13:47 PM 39.7275 -83.3744 286° West 368 423 11,700 -1,317 Descending Indianapolis Center
Mon 11:14:08 PM 39.7364 -83.4222 284° West 366 421 11,300 -689 Descending Indianapolis Center
Mon 11:14:48 PM 39.7506 -83.4847 286° West 369 425 11,000 -608 Descending Indianapolis Center
Mon 11:15:27 PM 39.7769 -83.5847 289° West 363 418 10,500 -677 Descending Indianapolis Center
Mon 11:15:50 PM 39.7856 -83.6108 293° West 358 412 10,300 -625 Descending Indianapolis Center
Mon 11:16:15 PM 39.8078 -83.6781 293° West 352 405 10,000 -295 Descending Indianapolis Center
Mon 11:16:51 PM 39.8253 -83.7308 293° West 355 409 10,000  Level Indianapolis Center
Mon 11:17:16 PM 39.8436 -83.7886 292° West 312 359 10,000 -492 Level Indianapolis Center
Mon 11:17:52 PM 39.8589 -83.8303 296° West 291 335 9,500 -2,361 Descending Indianapolis Center
Mon 11:18:17 PM 39.8742 -83.8822 291° West 260 299 7,600 -3,581 Descending Indianapolis Center
Mon 11:18:54 PM 39.8931 -83.9325 296° West 269 310 5,800 -2,700 Descending Indianapolis Center
Mon 11:19:17 PM 39.9033 -83.9675 291° West 259 298 4,900 -1,672 Descending Indianapolis Center
Mon 11:19:55 PM 39.9222 -84.0206 295° West 263 303 4,100 -787 Descending Indianapolis Center
Mon 11:20:18 PM 39.9339 -84.0586 292° West 268 308 4,100  Level Indianapolis Center

Login

Don't have an account? Register now (free) for customized features, flight alerts, and more!